NORTHEAST SUFFOLK  -  Special Weather Statement Special Weather Statement        NORTHERN NASSAU  -  Special Weather Statement Special Weather Statement        NORTHWEST SUFFOLK  -  Special Weather Statement Special Weather Statement        SOUTHEAST SUFFOLK  -  Special Weather Statement Special Weather Statement        SOUTHERN NASSAU  -  Special Weather Statement Special Weather Statement        SOUTHWEST SUFFOLK  -  Special Weather Statement Special Weather Statement      

Active alerts

Northern Nassau
  Details for Northern Nassau Special Weather Statement
Southern Nassau
  Details for Southern Nassau Special Weather Statement
Northwest Suffolk
  Details for Northwest Suffolk Special Weather Statement
Southwest Suffolk
  Details for Southwest Suffolk Special Weather Statement
Northeast Suffolk
  Details for Northeast Suffolk Special Weather Statement
Southeast Suffolk
  Details for Southeast Suffolk Special Weather Statement


WXM80 ListenWXM80 Stop

You find our weather info also at:

UK Metoffice

WeatherCloud

Weather Underground

Northeastern Weather Network

AWEKAS

Citizen Weather Observer Program (CWOP)

HAMweather, WeatherForYou, PWS Weather


Weather Underground History page Text

Daily Summary for October 7, 2017 Units:  English    Metric   Both
« Previous Day
Next Day »
Daily Weekly Monthly Yearly Custom
  High: Low: Average:
Temperature: 79.5 °F 66.6 °F 71.1 °F
Dew Point: 71.6 °F 64.3 °F 67.5 °F
Humidity: 97 % 66 % 89 %
Wind Speed: 7.0 mph 0.0 mph 1 mph
Wind Gust: 12.7 mph - -
Wind:- - SSE
Pressure: 30.11 in 29.98 in -
Precipitation: 0.00 in    
Historical Graphs
 
 
Tabular Data for October 7, 2017
Time Temperature Dew Point Pressure Wind Wind Speed Wind Gust Humidity Rainfall Rate (Hourly)
00:01 67.2 °F 64.8 °F 30.05 in Calm     92 % 0.00 in
00:06 67.1 °F 64.7 °F 30.05 in Calm     92 % 0.00 in
00:11 67.1 °F 64.7 °F 30.05 in Calm     92 % 0.00 in
00:16 67.0 °F 64.6 °F 30.05 in Calm     92 % 0.00 in
00:21 67.0 °F 64.6 °F 30.05 in Calm     92 % 0.00 in
00:25 67.0 °F 64.6 °F 30.05 in Calm     92 % 0.00 in
00:30 66.9 °F 64.5 °F 30.05 in Calm     92 % 0.00 in
00:35 66.8 °F 64.4 °F 30.05 in Calm     92 % 0.00 in
00:41 66.7 °F 64.3 °F 30.06 in Calm     92 % 0.00 in
00:46 66.7 °F 64.3 °F 30.06 in Calm     92 % 0.00 in
00:51 66.7 °F 64.3 °F 30.06 in Calm     92 % 0.00 in
00:56 66.6 °F 64.5 °F 30.06 in Calm     93 % 0.00 in
01:01 66.7 °F 64.6 °F 30.06 in Calm     93 % 0.00 in
01:06 66.6 °F 64.5 °F 30.06 in Calm     93 % 0.00 in
01:11 66.7 °F 64.6 °F 30.06 in Calm     93 % 0.00 in
01:16 66.7 °F 64.9 °F 30.06 in Calm     94 % 0.00 in
01:21 66.7 °F 64.9 °F 30.06 in Calm     94 % 0.00 in
01:26 66.8 °F 65.0 °F 30.06 in Calm     94 % 0.00 in
01:31 66.8 °F 65.0 °F 30.06 in Calm     94 % 0.00 in
01:36 66.9 °F 65.1 °F 30.06 in Calm     94 % 0.00 in
01:41 67.0 °F 65.5 °F 30.06 in Calm     95 % 0.00 in
01:46 67.0 °F 65.5 °F 30.06 in Calm     95 % 0.00 in
01:51 67.0 °F 65.5 °F 30.06 in Calm     95 % 0.00 in
01:56 67.0 °F 65.5 °F 30.06 in Calm     95 % 0.00 in
02:01 67.0 °F 65.5 °F 30.06 in Calm   1.2 mph 95 % 0.00 in
02:06 67.0 °F 65.2 °F 30.06 in Calm     94 % 0.00 in
02:11 67.0 °F 65.5 °F 30.06 in Calm     95 % 0.00 in
02:17 67.0 °F 65.2 °F 30.05 in Calm     94 % 0.00 in
02:22 67.0 °F 65.5 °F 30.05 in Calm     95 % 0.00 in
02:27 67.0 °F 65.5 °F 30.05 in Calm     95 % 0.00 in
02:33 67.0 °F 65.5 °F 30.05 in Calm     95 % 0.00 in
02:38 67.0 °F 65.5 °F 30.05 in Calm     95 % 0.00 in
02:43 67.0 °F 65.5 °F 30.05 in Calm     95 % 0.00 in
02:48 67.1 °F 65.6 °F 30.05 in Calm     95 % 0.00 in
02:53 67.1 °F 65.6 °F 30.05 in SSE 0.3 mph 1.2 mph 95 % 0.00 in
02:58 67.1 °F 65.6 °F 30.05 in Calm     95 % 0.00 in
03:03 67.2 °F 65.7 °F 30.05 in Calm     95 % 0.00 in
03:08 67.2 °F 65.7 °F 30.05 in Calm     95 % 0.00 in
03:13 67.2 °F 65.7 °F 30.05 in Calm     95 % 0.00 in
03:18 67.2 °F 65.7 °F 30.05 in Calm     95 % 0.00 in
03:23 67.3 °F 65.8 °F 30.05 in Calm     95 % 0.00 in
03:28 67.3 °F 65.8 °F 30.05 in Calm     95 % 0.00 in
03:33 67.3 °F 65.8 °F 30.06 in Calm     95 % 0.00 in
03:38 67.3 °F 65.8 °F 30.05 in Calm     95 % 0.00 in
03:43 67.4 °F 66.2 °F 30.06 in SSE 0.2 mph 2.0 mph 96 % 0.00 in
03:48 67.4 °F 66.2 °F 30.06 in Calm     96 % 0.00 in
03:53 67.3 °F 65.8 °F 30.05 in Calm     95 % 0.00 in
03:58 67.3 °F 66.1 °F 30.06 in Calm     96 % 0.00 in
04:03 67.3 °F 66.1 °F 30.06 in Calm     96 % 0.00 in
04:08 67.3 °F 66.1 °F 30.06 in Calm     96 % 0.00 in
04:14 67.3 °F 66.1 °F 30.06 in Calm     96 % 0.00 in
04:19 67.3 °F 66.1 °F 30.06 in Calm     96 % 0.00 in
04:24 67.4 °F 66.2 °F 30.06 in Calm     96 % 0.00 in
04:29 67.3 °F 66.1 °F 30.06 in Calm     96 % 0.00 in
04:34 67.3 °F 66.1 °F 30.06 in Calm     96 % 0.00 in
04:39 67.3 °F 66.1 °F 30.06 in Calm     96 % 0.00 in
04:44 67.2 °F 66.0 °F 30.06 in Calm     96 % 0.00 in
04:49 67.3 °F 66.1 °F 30.06 in SSE 0.9 mph 3.0 mph 96 % 0.00 in
04:54 67.4 °F 66.2 °F 30.06 in Calm   1.2 mph 96 % 0.00 in
04:59 67.4 °F 66.2 °F 30.06 in Calm     96 % 0.00 in
05:09 67.4 °F 66.2 °F 30.07 in Calm     96 % 0.00 in
05:15 67.3 °F 66.1 °F 30.06 in Calm     96 % 0.00 in
05:20 67.3 °F 66.1 °F 30.06 in Calm     96 % 0.00 in
05:25 67.3 °F 66.1 °F 30.06 in Calm     96 % 0.00 in
05:30 67.3 °F 66.1 °F 30.06 in Calm     96 % 0.00 in
05:35 67.3 °F 66.1 °F 30.07 in Calm     96 % 0.00 in
05:40 67.3 °F 66.1 °F 30.07 in Calm     96 % 0.00 in
05:45 67.2 °F 66.0 °F 30.07 in Calm     96 % 0.00 in
05:50 67.2 °F 66.0 °F 30.07 in Calm     96 % 0.00 in
05:55 67.2 °F 66.0 °F 30.06 in Calm     96 % 0.00 in
06:00 67.2 °F 66.0 °F 30.07 in Calm     96 % 0.00 in
06:05 67.2 °F 66.0 °F 30.06 in Calm     96 % 0.00 in
06:10 67.2 °F 66.0 °F 30.06 in Calm     96 % 0.00 in
06:15 67.2 °F 66.0 °F 30.07 in Calm     96 % 0.00 in
06:21 67.1 °F 65.9 °F 30.07 in Calm     96 % 0.00 in
06:25 67.1 °F 65.9 °F 30.07 in Calm     96 % 0.00 in
06:30 67.1 °F 65.9 °F 30.07 in Calm     96 % 0.00 in
06:35 67.0 °F 65.8 °F 30.07 in Calm     96 % 0.00 in
06:45 67.0 °F 65.8 °F 30.07 in Calm     96 % 0.00 in
06:50 67.0 °F 65.8 °F 30.07 in Calm     96 % 0.00 in
06:55 67.0 °F 65.8 °F 30.07 in Calm     96 % 0.00 in
07:01 66.9 °F 65.7 °F 30.07 in Calm     96 % 0.00 in
07:06 66.9 °F 65.7 °F 30.07 in Calm     96 % 0.00 in
07:11 66.9 °F 65.7 °F 30.07 in Calm     96 % 0.00 in
07:16 66.9 °F 65.7 °F 30.07 in Calm     96 % 0.00 in
07:21 66.9 °F 65.7 °F 30.08 in Calm     96 % 0.00 in
07:26 66.9 °F 65.7 °F 30.08 in Calm   1.2 mph 96 % 0.00 in
07:31 66.9 °F 65.7 °F 30.08 in Calm     96 % 0.00 in
07:36 66.9 °F 65.7 °F 30.08 in Calm     96 % 0.00 in
07:41 66.9 °F 65.7 °F 30.08 in Calm     96 % 0.00 in
07:46 66.9 °F 65.7 °F 30.08 in Calm     96 % 0.00 in
07:51 67.0 °F 65.8 °F 30.08 in Calm     96 % 0.00 in
07:56 67.0 °F 65.8 °F 30.08 in Calm     96 % 0.00 in
08:01 67.0 °F 66.1 °F 30.09 in Calm     97 % 0.00 in
08:06 67.1 °F 66.2 °F 30.08 in Calm     97 % 0.00 in
08:11 67.2 °F 66.3 °F 30.09 in Calm     97 % 0.00 in
08:16 67.2 °F 66.3 °F 30.09 in Calm     97 % 0.00 in
08:21 67.3 °F 66.4 °F 30.09 in Calm     97 % 0.00 in
08:26 67.4 °F 66.5 °F 30.09 in Calm     97 % 0.00 in
08:31 67.5 °F 66.6 °F 30.09 in SSE 0.3 mph 1.2 mph 97 % 0.00 in
08:36 67.5 °F 66.6 °F 30.10 in Calm   1.2 mph 97 % 0.00 in
08:41 67.6 °F 66.7 °F 30.10 in Calm     97 % 0.00 in
08:46 67.6 °F 66.7 °F 30.10 in Calm     97 % 0.00 in
08:51 67.6 °F 66.7 °F 30.10 in SSE 0.5 mph 2.0 mph 97 % 0.00 in
08:56 67.7 °F 66.8 °F 30.11 in Calm     97 % 0.00 in
09:01 67.7 °F 66.8 °F 30.11 in Calm     97 % 0.00 in
09:06 67.7 °F 66.8 °F 30.10 in Calm     97 % 0.00 in
09:11 67.9 °F 67.0 °F 30.10 in Calm     97 % 0.00 in
09:17 68.0 °F 67.1 °F 30.10 in Calm   1.2 mph 97 % 0.00 in
09:22 68.1 °F 67.2 °F 30.10 in Calm   1.2 mph 97 % 0.00 in
09:27 68.2 °F 67.3 °F 30.11 in Calm     97 % 0.00 in
09:32 68.2 °F 67.3 °F 30.11 in Calm     97 % 0.00 in
09:37 68.2 °F 67.3 °F 30.11 in Calm     97 % 0.00 in
09:42 68.3 °F 67.4 °F 30.11 in Calm   1.0 mph 97 % 0.00 in
09:47 68.4 °F 67.5 °F 30.11 in SSE 0.2 mph 2.3 mph 97 % 0.00 in
09:48 68.3 °F 67.4 °F 30.11 in Calm   2.3 mph 97 % 0.00 in
09:58 68.5 °F 67.6 °F 30.11 in SSE 0.3 mph 1.2 mph 97 % 0.00 in
10:08 68.7 °F 67.8 °F 30.11 in SSE 0.4 mph 3.5 mph 97 % 0.00 in
10:13 68.9 °F 68.0 °F 30.10 in Calm     97 % 0.00 in
10:23 69.4 °F 68.5 °F 30.10 in Calm   1.2 mph 97 % 0.00 in
10:28 69.6 °F 68.4 °F 30.10 in Calm     96 % 0.00 in
10:33 69.8 °F 68.6 °F 30.10 in SSE 0.2 mph 1.2 mph 96 % 0.00 in
10:38 70.2 °F 69.0 °F 30.09 in SSE 0.8 mph 2.3 mph 96 % 0.00 in
10:43 70.4 °F 69.2 °F 30.09 in SSE 0.3 mph 1.2 mph 96 % 0.00 in
10:48 70.8 °F 69.6 °F 30.09 in SSE 0.9 mph 3.5 mph 96 % 0.00 in
10:53 71.1 °F 69.6 °F 30.09 in Calm   2.3 mph 95 % 0.00 in
10:58 71.5 °F 69.7 °F 30.09 in NE 1.4 mph 3.5 mph 94 % 0.00 in
11:03 71.9 °F 69.8 °F 30.08 in NE 1.3 mph 3.5 mph 93 % 0.00 in
11:08 72.5 °F 70.4 °F 30.08 in North 2.1 mph 4.6 mph 93 % 0.00 in
11:11 72.9 °F 70.4 °F 30.09 in Calm   1.2 mph 92 % 0.00 in
11:16 73.9 °F 71.1 °F 30.09 in NNE 2.8 mph 6.0 mph 91 % 0.00 in
11:21 74.8 °F 71.0 °F 30.09 in North 4.7 mph 4.7 mph 88 % 0.00 in
11:26 75.5 °F 71.0 °F 30.08 in NE 0.8 mph 3.5 mph 86 % 0.00 in
11:31 76.0 °F 70.8 °F 30.08 in Calm   3.5 mph 84 % 0.00 in
11:36 76.5 °F 70.9 °F 30.08 in NNE 2.4 mph 4.6 mph 83 % 0.00 in
11:41 76.8 °F 70.9 °F 30.08 in NNE 2.9 mph 5.8 mph 82 % 0.00 in
11:46 77.1 °F 70.8 °F 30.08 in North 1.3 mph 4.6 mph 81 % 0.00 in
11:51 77.3 °F 71.0 °F 30.08 in North 1.9 mph 3.0 mph 81 % 0.00 in
11:56 77.4 °F 70.4 °F 30.08 in NNE 3.0 mph 5.8 mph 79 % 0.00 in
12:02 77.5 °F 71.2 °F 30.08 in ENE 0.9 mph 2.3 mph 81 % 0.00 in
12:06 77.6 °F 70.6 °F 30.08 in North 1.1 mph 5.0 mph 79 % 0.00 in
12:11 77.6 °F 70.6 °F 30.08 in North 2.0 mph 4.6 mph 79 % 0.00 in
12:16 77.7 °F 71.0 °F 30.08 in NNE 1.5 mph 3.5 mph 80 % 0.00 in
12:22 77.6 °F 70.6 °F 30.08 in NNE 2.5 mph 4.6 mph 79 % 0.00 in
12:27 77.4 °F 70.4 °F 30.08 in NNE 2.9 mph 5.8 mph 79 % 0.00 in
12:32 77.3 °F 70.6 °F 30.07 in NNE 0.8 mph 3.0 mph 80 % 0.00 in
12:37 77.3 °F 71.0 °F 30.07 in NE 2.2 mph 3.5 mph 81 % 0.00 in
12:42 77.2 °F 70.2 °F 30.07 in ENE 1.2 mph 6.9 mph 79 % 0.00 in
12:47 77.3 °F 70.6 °F 30.07 in ENE 3.6 mph 4.6 mph 80 % 0.00 in
12:49 77.2 °F 70.5 °F 30.06 in ENE 2.4 mph 4.6 mph 80 % 0.00 in
12:54 77.1 °F 70.5 °F 30.06 in NE 2.5 mph 4.6 mph 80 % 0.00 in
12:59 76.9 °F 70.3 °F 30.06 in ENE 2.3 mph 4.6 mph 80 % 0.00 in
13:04 76.9 °F 70.3 °F 30.06 in ENE 2.2 mph 4.6 mph 80 % 0.00 in
13:09 76.9 °F 70.6 °F 30.06 in ENE 2.2 mph 4.6 mph 81 % 0.00 in
13:15 77.1 °F 70.8 °F 30.05 in NE 0.1 mph 2.3 mph 81 % 0.00 in
13:20 77.1 °F 70.8 °F 30.06 in NE 2.1 mph 3.5 mph 81 % 0.00 in
13:25 77.5 °F 71.6 °F 30.05 in NNE 0.2 mph 1.2 mph 82 % 0.00 in
13:30 77.5 °F 70.8 °F 30.05 in NNW 3.0 mph 3.5 mph 80 % 0.00 in
13:35 77.4 °F 70.0 °F 30.05 in Calm     78 % 0.00 in
13:40 77.8 °F 71.5 °F 30.04 in Calm     81 % 0.00 in
13:45 78.0 °F 70.6 °F 30.04 in SSW 0.6 mph 2.3 mph 78 % 0.00 in
13:50 78.0 °F 67.4 °F 30.04 in South 1.4 mph 3.5 mph 70 % 0.00 in
13:55 78.0 °F 66.6 °F 30.04 in West 1.5 mph 3.5 mph 68 % 0.00 in
14:00 78.3 °F 67.7 °F 30.04 in SE 0.4 mph 2.3 mph 70 % 0.00 in
14:05 78.4 °F 67.8 °F 30.03 in SSW 0.1 mph 2.3 mph 70 % 0.00 in
14:10 78.6 °F 67.6 °F 30.04 in SE 1.3 mph 3.5 mph 69 % 0.00 in
14:15 78.7 °F 67.2 °F 30.03 in SE 0.8 mph 3.5 mph 68 % 0.00 in
14:20 78.7 °F 66.4 °F 30.03 in SSE 5.5 mph 11.5 mph 66 % 0.00 in
14:25 78.6 °F 67.2 °F 30.03 in SSE 6.1 mph 7.0 mph 68 % 0.00 in
14:30 78.6 °F 67.6 °F 30.03 in SE 1.4 mph 2.3 mph 69 % 0.00 in
14:35 78.7 °F 68.1 °F 30.03 in SE 2.7 mph 6.9 mph 70 % 0.00 in
14:40 78.8 °F 68.6 °F 30.03 in SW 0.9 mph 3.5 mph 71 % 0.00 in
14:45 79.2 °F 67.7 °F 30.03 in SE 4.6 mph 11.5 mph 68 % 0.00 in
14:51 79.3 °F 68.2 °F 30.03 in SSE 0.1 mph 5.8 mph 69 % 0.00 in
14:56 79.5 °F 68.9 °F 30.03 in SSE 5.0 mph 10.0 mph 70 % 0.00 in
15:01 79.4 °F 68.3 °F 30.03 in South 0.9 mph 8.1 mph 69 % 0.00 in
15:06 79.1 °F 68.1 °F 30.03 in SSE 1.0 mph 12.0 mph 69 % 0.00 in
15:11 78.5 °F 68.8 °F 30.03 in SSE 2.0 mph 12.0 mph 72 % 0.00 in
15:16 78.1 °F 69.1 °F 30.03 in SE 5.0 mph 10.0 mph 74 % 0.00 in
15:21 77.6 °F 69.0 °F 30.03 in SSE 2.0 mph 7.0 mph 75 % 0.00 in
15:26 77.1 °F 68.6 °F 30.03 in SE 5.0 mph 12.0 mph 75 % 0.00 in
15:36 76.6 °F 69.2 °F 30.03 in SE 1.0 mph 6.0 mph 78 % 0.00 in
15:41 76.5 °F 69.1 °F 30.03 in SE 6.0 mph 12.0 mph 78 % 0.00 in
15:46 76.3 °F 68.5 °F 30.03 in SE 6.0 mph 12.0 mph 77 % 0.00 in
15:51 76.0 °F 68.3 °F 30.03 in SE 2.0 mph 9.0 mph 77 % 0.00 in
15:56 75.8 °F 68.1 °F 30.03 in SE 7.0 mph 12.0 mph 77 % 0.00 in
16:01 75.6 °F 68.3 °F 30.03 in ESE 1.7 mph 6.9 mph 78 % 0.00 in
16:06 75.5 °F 68.5 °F 30.03 in SSE 2.5 mph 8.1 mph 79 % 0.00 in
16:16 75.4 °F 68.8 °F 30.03 in SW 1.5 mph 4.6 mph 80 % 0.00 in
16:21 75.4 °F 68.4 °F 30.03 in SSW 2.2 mph 3.5 mph 79 % 0.00 in
16:26 75.4 °F 68.1 °F 30.02 in ESE 0.4 mph 2.0 mph 78 % 0.00 in
16:31 75.4 °F 68.1 °F 30.02 in SE 1.0 mph 3.5 mph 78 % 0.00 in
16:36 75.5 °F 68.2 °F 30.02 in South 0.2 mph 2.3 mph 78 % 0.00 in
16:41 75.5 °F 68.2 °F 30.02 in SSE 3.1 mph 7.0 mph 78 % 0.00 in
16:46 75.5 °F 68.2 °F 30.02 in SE 1.3 mph 3.5 mph 78 % 0.00 in
16:51 75.4 °F 68.1 °F 30.01 in South 2.5 mph 5.8 mph 78 % 0.00 in
16:56 75.3 °F 68.0 °F 30.02 in SSW 1.5 mph 3.5 mph 78 % 0.00 in
17:01 75.2 °F 67.9 °F 30.01 in SE 2.6 mph 6.9 mph 78 % 0.00 in
17:06 75.1 °F 68.1 °F 30.01 in SW 0.1 mph 1.2 mph 79 % 0.00 in
17:11 75.0 °F 68.0 °F 30.02 in South 2.6 mph 6.9 mph 79 % 0.00 in
17:16 74.8 °F 68.2 °F 30.01 in SSW 1.6 mph 2.3 mph 80 % 0.00 in
17:21 74.6 °F 68.4 °F 30.02 in SSE 2.2 mph 3.5 mph 81 % 0.00 in
17:26 74.5 °F 68.3 °F 30.01 in SSE 4.2 mph 8.1 mph 81 % 0.00 in
17:31 74.3 °F 68.4 °F 30.01 in SE 1.8 mph 5.0 mph 82 % 0.00 in
17:37 74.1 °F 68.3 °F 30.01 in Calm   2.3 mph 82 % 0.00 in
17:42 74.1 °F 68.3 °F 30.01 in SE 1.1 mph 3.5 mph 82 % 0.00 in
17:47 73.9 °F 68.1 °F 30.01 in South 2.9 mph 9.2 mph 82 % 0.00 in
17:52 73.7 °F 67.9 °F 30.01 in SSE 0.1 mph 5.8 mph 82 % 0.00 in
17:57 73.6 °F 67.8 °F 30.02 in SE 0.9 mph 3.5 mph 82 % 0.00 in
18:02 73.5 °F 67.7 °F 30.02 in South 1.1 mph 3.5 mph 82 % 0.00 in
18:07 73.3 °F 67.8 °F 30.01 in SSW 0.9 mph 3.5 mph 83 % 0.00 in
18:12 73.1 °F 67.6 °F 30.01 in SE 3.7 mph 6.9 mph 83 % 0.00 in
18:17 73.0 °F 67.9 °F 30.01 in SE 0.9 mph 3.5 mph 84 % 0.00 in
18:22 72.8 °F 67.7 °F 30.01 in SSW 3.1 mph 6.9 mph 84 % 0.00 in
18:27 72.7 °F 67.6 °F 30.01 in SSE 2.1 mph 3.5 mph 84 % 0.00 in
18:32 72.6 °F 67.5 °F 30.01 in South 1.4 mph 3.5 mph 84 % 0.00 in
18:37 72.4 °F 67.6 °F 30.01 in SE 0.1 mph 1.2 mph 85 % 0.00 in
18:42 72.3 °F 67.5 °F 30.01 in SSE 0.6 mph 2.3 mph 85 % 0.00 in
18:52 72.0 °F 67.6 °F 30.01 in SSW 0.9 mph 6.0 mph 86 % 0.00 in
18:57 71.9 °F 67.5 °F 30.01 in SE 1.7 mph 3.5 mph 86 % 0.00 in
19:02 71.7 °F 67.3 °F 30.01 in SSW 0.2 mph 1.2 mph 86 % 0.00 in
19:07 71.6 °F 67.5 °F 30.01 in SSE 0.3 mph 1.2 mph 87 % 0.00 in
19:12 71.6 °F 67.5 °F 30.01 in South 0.5 mph 2.3 mph 87 % 0.00 in
19:17 71.5 °F 67.4 °F 30.01 in SSE 0.2 mph 1.2 mph 87 % 0.00 in
19:22 71.5 °F 67.4 °F 30.01 in WSW 1.0 mph 4.0 mph 87 % 0.00 in
19:27 71.4 °F 67.7 °F 30.01 in SSE 1.0 mph 3.5 mph 88 % 0.00 in
19:32 71.4 °F 68.0 °F 30.01 in SSE 0.6 mph 3.5 mph 89 % 0.00 in
19:37 71.4 °F 68.0 °F 30.01 in WSW 1.6 mph 4.6 mph 89 % 0.00 in
19:42 71.4 °F 68.0 °F 30.01 in SSW 1.2 mph 4.6 mph 89 % 0.00 in
19:47 71.4 °F 68.3 °F 30.01 in SSW 3.3 mph 5.8 mph 90 % 0.00 in
19:52 71.4 °F 68.3 °F 30.01 in South 1.7 mph 5.8 mph 90 % 0.00 in
19:58 71.4 °F 68.3 °F 30.01 in SSE 1.6 mph 5.8 mph 90 % 0.00 in
20:03 71.4 °F 68.3 °F 30.01 in SSE 1.6 mph 3.5 mph 90 % 0.00 in
20:08 71.3 °F 68.2 °F 30.01 in SE 2.5 mph 9.2 mph 90 % 0.00 in
20:13 71.3 °F 68.2 °F 30.01 in SSE 1.1 mph 9.2 mph 90 % 0.00 in
20:18 71.3 °F 68.2 °F 30.01 in SSW 1.2 mph 3.5 mph 90 % 0.00 in
20:23 71.3 °F 68.2 °F 30.01 in SSW 0.7 mph 1.2 mph 90 % 0.00 in
20:28 71.3 °F 68.5 °F 30.01 in SSW 1.5 mph 4.6 mph 91 % 0.00 in
20:33 71.3 °F 68.2 °F 30.01 in South 1.9 mph 4.0 mph 90 % 0.00 in
20:38 71.3 °F 68.5 °F 30.01 in SSW 1.3 mph 3.0 mph 91 % 0.00 in
20:43 71.3 °F 68.5 °F 30.01 in SSE 1.0 mph 3.5 mph 91 % 0.00 in
20:48 71.3 °F 68.5 °F 30.01 in SSW 1.3 mph 3.0 mph 91 % 0.00 in
20:53 71.2 °F 68.4 °F 30.01 in South 0.8 mph 3.5 mph 91 % 0.00 in
20:58 71.2 °F 68.4 °F 30.01 in SSE 0.2 mph 1.2 mph 91 % 0.00 in
21:03 71.2 °F 68.4 °F 30.01 in SSE 1.1 mph 3.5 mph 91 % 0.00 in
21:08 71.1 °F 68.3 °F 30.01 in SSW 1.6 mph 5.8 mph 91 % 0.00 in
21:13 71.1 °F 68.3 °F 30.01 in SE 0.8 mph 5.0 mph 91 % 0.00 in
21:18 71.1 °F 68.3 °F 30.02 in South 1.2 mph 2.3 mph 91 % 0.00 in
21:23 71.0 °F 68.2 °F 30.02 in South 1.4 mph 4.6 mph 91 % 0.00 in
21:28 71.0 °F 68.2 °F 30.02 in South 0.6 mph 3.5 mph 91 % 0.00 in
21:33 70.9 °F 68.1 °F 30.02 in South 0.7 mph 2.3 mph 91 % 0.00 in
21:38 70.9 °F 68.1 °F 30.02 in South 1.0 mph 3.5 mph 91 % 0.00 in
21:43 70.8 °F 68.0 °F 30.02 in South 0.8 mph 1.2 mph 91 % 0.00 in
21:48 70.8 °F 68.0 °F 30.02 in SSE 1.9 mph 4.6 mph 91 % 0.00 in
21:53 70.8 °F 68.0 °F 30.02 in SSW 0.7 mph 3.5 mph 91 % 0.00 in
21:58 70.8 °F 68.0 °F 30.02 in SSW 3.2 mph 11.5 mph 91 % 0.00 in
22:08 70.8 °F 68.0 °F 30.02 in SSW 2.8 mph 4.6 mph 91 % 0.00 in
22:13 70.9 °F 68.1 °F 30.02 in SSW 2.8 mph 4.6 mph 91 % 0.00 in
22:23 71.0 °F 68.2 °F 30.02 in SW 1.3 mph 3.5 mph 91 % 0.00 in
22:28 71.1 °F 68.3 °F 30.02 in South 0.9 mph 4.6 mph 91 % 0.00 in
22:33 71.1 °F 68.3 °F 30.01 in South 3.9 mph 6.0 mph 91 % 0.00 in
22:38 71.1 °F 68.3 °F 30.01 in SSW 0.6 mph 4.0 mph 91 % 0.00 in
22:43 71.2 °F 68.4 °F 30.01 in SSE 1.3 mph 7.0 mph 91 % 0.00 in
22:48 71.2 °F 68.4 °F 30.00 in South 0.1 mph 2.3 mph 91 % 0.00 in
22:53 71.2 °F 68.4 °F 30.00 in SSE 4.1 mph 6.9 mph 91 % 0.00 in
22:58 71.2 °F 68.4 °F 30.00 in South 2.1 mph 6.9 mph 91 % 0.00 in
23:03 71.3 °F 68.5 °F 30.00 in South 1.7 mph 5.8 mph 91 % 0.00 in
23:09 71.3 °F 68.2 °F 30.00 in South 2.9 mph 5.8 mph 90 % 0.00 in
23:14 71.3 °F 68.2 °F 30.00 in SSW 3.8 mph 3.8 mph 90 % 0.00 in
23:18 71.3 °F 68.2 °F 29.99 in SSW 0.9 mph 3.5 mph 90 % 0.00 in
23:24 71.3 °F 68.2 °F 30.00 in SSE 2.6 mph 6.9 mph 90 % 0.00 in
23:25 71.3 °F 68.2 °F 29.99 in SSW 1.1 mph 12.7 mph 90 % 0.00 in
23:30 71.2 °F 68.1 °F 30.00 in SSE 0.3 mph 1.2 mph 90 % 0.00 in
23:36 71.3 °F 68.2 °F 29.99 in SSW 2.0 mph 5.0 mph 90 % 0.00 in
23:41 71.3 °F 68.2 °F 29.99 in South 2.0 mph 5.0 mph 90 % 0.00 in
23:46 71.3 °F 68.2 °F 29.99 in SSW 2.0 mph 7.0 mph 90 % 0.00 in
23:51 71.3 °F 68.2 °F 29.98 in South 1.0 mph 7.0 mph 90 % 0.00 in
23:56 71.3 °F 67.9 °F 29.99 in South 1.0 mph 4.0 mph 89 % 0.00 in
Crab Meadow Weather
Compliments of Weather Underground - 3 mb

Script developed by  Jim McMurry - jmcmurry@mwt.net Adapted for the template by  Wim van der Kuil - Leuven-Template.eu

Weather Terms: Watch - A watch is used when the risk of a hazardous weather or hydrologic event has increased significantly, but its occurrence, location or timing is still uncertain. It is intended to provide enough lead time so those who need to set their plans in motion can do so. A watch means that hazardous weather is possible. People should have a plan of action in case a storm threatens and they should listen for later information and possible warnings especially when planning travel or outdoor activities.